createdAt,value
2019-04-29T00:01:11.170Z,3.17
2019-04-29T00:03:40.743Z,2.83
2019-04-29T00:06:10.553Z,2.27
2019-04-29T00:08:40.960Z,2.57
2019-04-29T00:11:10.770Z,2.87
2019-04-29T00:13:40.500Z,3.57
2019-04-29T00:16:20.584Z,2.07
2019-04-29T00:19:09.201Z,1.93
2019-04-29T00:21:39.364Z,4.10
2019-04-29T00:24:09.053Z,2.73
2019-04-29T00:26:38.827Z,1.90
2019-04-29T00:29:08.402Z,2.63
2019-04-29T00:31:38.272Z,3.00
2019-04-29T00:34:07.952Z,1.63
2019-04-29T00:36:44.284Z,2.83
2019-04-29T00:39:32.257Z,1.70
2019-04-29T00:42:13.272Z,2.80
2019-04-29T00:44:42.930Z,2.33
2019-04-29T00:47:12.639Z,4.67
2019-04-29T00:49:42.443Z,2.67
2019-04-29T00:52:12.038Z,2.17
2019-04-29T00:54:46.973Z,3.03
2019-04-29T00:57:16.658Z,2.10
2019-04-29T00:59:46.228Z,1.97
2019-04-29T01:02:15.910Z,3.57
2019-04-29T01:04:45.529Z,3.47
2019-04-29T01:07:15.214Z,1.87
2019-04-29T01:09:45.176Z,2.80
2019-04-29T01:12:14.742Z,1.73
2019-04-29T01:14:44.306Z,2.23
2019-04-29T01:17:13.892Z,2.43
2019-04-29T01:19:43.474Z,3.93
2019-04-29T01:22:13.125Z,2.00
2019-04-29T01:24:42.715Z,2.23
2019-04-29T01:27:23.303Z,3.50
2019-04-29T01:29:52.911Z,2.53
2019-04-29T01:32:22.612Z,3.10
2019-04-29T01:35:07.201Z,3.30
2019-04-29T01:37:39.222Z,2.10
2019-04-29T01:40:34.454Z,2.77
2019-04-29T01:43:04.060Z,2.17
2019-04-29T01:45:33.976Z,3.27
2019-04-29T01:48:03.652Z,2.90
2019-04-29T01:50:33.252Z,3.27
2019-04-29T01:53:02.844Z,3.60
2019-04-29T01:55:32.442Z,2.80
2019-04-29T01:58:02.005Z,2.90
2019-04-29T02:00:31.600Z,3.03
2019-04-29T02:03:01.212Z,2.03
2019-04-29T02:05:30.861Z,4.60
2019-04-29T02:08:00.502Z,2.13
2019-04-29T02:10:32.978Z,2.63
2019-04-29T02:13:02.576Z,2.20
2019-04-29T02:15:32.171Z,2.47
2019-04-29T02:18:01.761Z,3.63
2019-04-29T02:20:31.412Z,1.93
2019-04-29T02:23:21.967Z,2.00
2019-04-29T02:25:51.642Z,2.63
2019-04-29T02:28:21.235Z,2.37
2019-04-29T02:30:51.924Z,3.60
2019-04-29T02:33:21.545Z,2.33
2019-04-29T02:35:51.130Z,3.10
2019-04-29T02:38:31.233Z,3.00
2019-04-29T02:41:07.970Z,1.93
2019-04-29T02:43:39.152Z,3.27
2019-04-29T02:46:08.787Z,4.63
2019-04-29T02:48:38.393Z,3.87
2019-04-29T02:51:07.955Z,4.80
2019-04-29T02:53:37.559Z,4.63
2019-04-29T02:56:07.129Z,3.33
2019-04-29T02:58:55.566Z,5.53
2019-04-29T03:01:47.429Z,2.83
2019-04-29T03:04:19.739Z,3.37
2019-04-29T03:06:49.302Z,2.17
2019-04-29T03:09:18.983Z,2.53
2019-04-29T03:11:48.759Z,4.70
2019-04-29T03:14:18.356Z,2.23
2019-04-29T03:16:48.067Z,2.93
2019-04-29T03:19:29.002Z,2.33
2019-04-29T03:22:00.266Z,2.80
2019-04-29T03:24:29.849Z,4.13
2019-04-29T03:26:59.427Z,2.60
2019-04-29T03:29:29.106Z,3.83
2019-04-29T03:31:59.125Z,2.40
2019-04-29T03:34:28.882Z,3.83
2019-04-29T03:36:58.493Z,4.17
2019-04-29T03:39:28.187Z,4.23
2019-04-29T03:41:57.855Z,3.23
2019-04-29T03:44:27.441Z,4.63
2019-04-29T03:46:57.142Z,3.03
2019-04-29T03:49:26.751Z,2.73
2019-04-29T03:51:56.334Z,4.97
2019-04-29T03:54:25.945Z,3.93
2019-04-29T03:56:55.611Z,3.17
2019-04-29T03:59:25.206Z,2.83
2019-04-29T04:02:04.239Z,5.63
2019-04-29T04:04:51.521Z,3.07
2019-04-29T04:07:46.378Z,2.63
2019-04-29T04:10:16.224Z,3.43
2019-04-29T04:12:45.786Z,4.37
2019-04-29T04:15:15.571Z,3.97
2019-04-29T04:17:54.679Z,2.30
2019-04-29T04:20:24.625Z,4.60
2019-04-29T04:22:54.162Z,5.03
2019-04-29T04:25:23.770Z,4.37
2019-04-29T04:27:53.547Z,3.30
2019-04-29T04:30:23.738Z,2.83
2019-04-29T04:32:53.320Z,3.53
2019-04-29T04:35:22.922Z,2.53
2019-04-29T04:37:52.624Z,2.73
2019-04-29T04:40:28.398Z,4.00
2019-04-29T04:42:57.983Z,4.57
2019-04-29T04:45:27.607Z,3.67
2019-04-29T04:47:57.239Z,2.80
2019-04-29T04:50:26.941Z,3.43
2019-04-29T04:52:56.530Z,3.57
2019-04-29T04:55:28.868Z,2.20
2019-04-29T04:57:58.476Z,2.83
2019-04-29T05:00:29.899Z,5.77
2019-04-29T05:02:59.560Z,4.50
2019-04-29T05:05:29.135Z,3.33
2019-04-29T05:07:58.773Z,4.30
2019-04-29T05:10:28.413Z,2.60
2019-04-29T05:12:58.070Z,4.00
2019-04-29T05:15:27.829Z,4.67
2019-04-29T05:17:57.471Z,4.87
2019-04-29T05:20:27.075Z,4.17
2019-04-29T05:22:59.696Z,2.37
2019-04-29T05:25:31.211Z,4.10
2019-04-29T05:28:01.617Z,3.37
2019-04-29T05:30:31.355Z,4.87
2019-04-29T05:33:00.982Z,4.27
2019-04-29T05:35:42.936Z,5.03
2019-04-29T05:38:21.046Z,3.93
2019-04-29T05:40:51.767Z,4.07
2019-04-29T05:43:33.462Z,4.07
2019-04-29T05:46:23.245Z,4.23
2019-04-29T05:48:53.201Z,3.17
2019-04-29T05:51:47.568Z,4.17
2019-04-29T05:54:17.923Z,6.87
2019-04-29T05:56:47.579Z,4.30
2019-04-29T05:59:17.261Z,4.43
2019-04-29T06:01:48.792Z,5.83
2019-04-29T06:04:18.355Z,5.27
2019-04-29T06:06:47.940Z,3.60
2019-04-29T06:09:18.391Z,4.93
2019-04-29T06:11:48.201Z,5.00
2019-04-29T06:14:17.802Z,4.50
2019-04-29T06:16:47.536Z,5.33
2019-04-29T06:19:17.155Z,5.83
2019-04-29T06:21:46.805Z,4.20
2019-04-29T06:24:16.380Z,4.50
2019-04-29T06:26:46.061Z,4.77
2019-04-29T06:29:15.673Z,4.30
2019-04-29T06:31:45.294Z,4.17
2019-04-29T06:34:14.889Z,8.47
2019-04-29T06:36:44.479Z,5.40
2019-04-29T06:39:14.135Z,5.03
2019-04-29T06:41:45.545Z,5.37
2019-04-29T06:44:16.540Z,4.67
2019-04-29T06:46:50.169Z,5.40
2019-04-29T06:49:17.821Z,5.77
2019-04-29T06:51:47.417Z,7.70
2019-04-29T06:54:18.250Z,5.77
2019-04-29T06:56:47.948Z,6.40
2019-04-29T06:59:17.609Z,7.27
2019-04-29T07:01:47.226Z,5.87
2019-04-29T07:04:16.835Z,5.87
2019-04-29T07:06:57.106Z,5.00
2019-04-29T07:09:17.854Z,5.10
2019-04-29T07:11:47.544Z,5.03
2019-04-29T07:14:17.187Z,5.53
2019-04-29T07:16:46.817Z,4.57
2019-04-29T07:19:16.466Z,4.77
2019-04-29T07:21:47.067Z,4.43
2019-04-29T07:24:20.202Z,4.63
2019-04-29T07:26:48.455Z,4.50
2019-04-29T07:29:18.469Z,7.60
2019-04-29T07:31:48.594Z,5.17
2019-04-29T07:34:18.221Z,5.10
2019-04-29T07:36:47.869Z,5.20
2019-04-29T07:39:17.492Z,5.70
2019-04-29T07:41:49.524Z,6.63
2019-04-29T07:44:20.025Z,5.70
2019-04-29T07:46:59.136Z,4.83
2019-04-29T07:49:26.317Z,6.47
2019-04-29T07:51:55.962Z,4.13
2019-04-29T07:54:25.653Z,4.10
2019-04-29T07:56:55.248Z,5.57
2019-04-29T07:59:24.945Z,4.60
2019-04-29T08:01:55.553Z,8.03
2019-04-29T08:04:25.929Z,5.00
2019-04-29T08:06:56.653Z,6.77
2019-04-29T08:09:26.753Z,5.47
2019-04-29T08:11:56.703Z,8.47
2019-04-29T08:14:29.135Z,5.70
2019-04-29T08:16:58.747Z,5.13
2019-04-29T08:19:34.070Z,5.83
2019-04-29T08:22:03.770Z,6.13
2019-04-29T08:24:33.365Z,5.97
2019-04-29T08:27:03.048Z,4.37
2019-04-29T08:29:35.721Z,6.23
2019-04-29T08:32:04.016Z,5.93
2019-04-29T08:34:33.756Z,3.80
2019-04-29T08:37:03.361Z,7.27
2019-04-29T08:39:32.946Z,5.60
2019-04-29T08:42:08.832Z,5.73
2019-04-29T08:44:59.673Z,5.80
2019-04-29T08:47:31.609Z,5.00
2019-04-29T08:50:00.684Z,6.87
2019-04-29T08:52:30.337Z,6.97
2019-04-29T08:54:59.957Z,7.27
2019-04-29T08:57:31.845Z,5.00
2019-04-29T09:00:00.912Z,6.77
2019-04-29T09:02:34.910Z,8.33
2019-04-29T09:05:01.862Z,6.67
2019-04-29T09:07:31.499Z,7.87
2019-04-29T09:10:03.483Z,4.50
2019-04-29T09:12:32.549Z,5.53
2019-04-29T09:15:02.121Z,5.13
2019-04-29T09:17:31.731Z,3.63
2019-04-29T09:20:01.406Z,5.73
2019-04-29T09:22:32.709Z,3.60
2019-04-29T09:25:33.415Z,6.57
2019-04-29T09:28:07.331Z,4.83
2019-04-29T09:30:38.788Z,5.07
2019-04-29T09:33:12.823Z,5.10
2019-04-29T09:35:40.552Z,4.80
2019-04-29T09:38:10.400Z,5.97
2019-04-29T09:40:45.756Z,5.40
2019-04-29T09:43:27.604Z,6.17
2019-04-29T09:46:21.982Z,5.43
2019-04-29T09:48:51.541Z,3.67
2019-04-29T09:51:22.622Z,5.27
2019-04-29T09:53:52.583Z,5.20
2019-04-29T09:56:22.369Z,6.27
2019-04-29T09:58:54.139Z,4.40
2019-04-29T10:01:43.964Z,5.63
2019-04-29T10:04:56.798Z,4.63
2019-04-29T10:07:22.034Z,5.17
2019-04-29T10:09:57.548Z,6.80
2019-04-29T10:12:23.019Z,5.07
2019-04-29T10:14:52.749Z,3.47
2019-04-29T10:17:56.044Z,4.40
2019-04-29T10:20:38.856Z,3.87
2019-04-29T10:23:08.635Z,3.63
2019-04-29T10:25:38.341Z,5.80
2019-04-29T10:28:08.025Z,6.07
2019-04-29T10:30:37.736Z,3.40
2019-04-29T10:33:07.355Z,7.00
2019-04-29T10:35:40.823Z,6.37
2019-04-29T10:38:08.413Z,6.77
2019-04-29T10:40:56.533Z,4.13
2019-04-29T10:43:45.307Z,5.83
2019-04-29T10:46:32.723Z,5.93
2019-04-29T10:49:07.556Z,5.57
2019-04-29T10:51:37.260Z,6.73
2019-04-29T10:54:07.206Z,6.40
2019-04-29T10:56:39.394Z,5.83
2019-04-29T10:59:11.116Z,5.73
2019-04-29T11:02:29.136Z,7.47
2019-04-29T11:05:12.085Z,4.93
2019-04-29T11:07:43.491Z,6.73
2019-04-29T11:10:26.676Z,7.17
2019-04-29T11:12:57.039Z,4.77
2019-04-29T11:15:32.727Z,8.20
2019-04-29T11:18:03.785Z,8.87
2019-04-29T11:20:34.845Z,7.40
2019-04-29T11:23:22.767Z,6.70
2019-04-29T11:26:24.625Z,8.83
2019-04-29T11:28:54.835Z,6.70
2019-04-29T11:31:24.875Z,7.63
2019-04-29T11:34:20.374Z,8.13
2019-04-29T11:36:50.027Z,9.57
2019-04-29T11:39:19.945Z,8.50
2019-04-29T11:41:50.219Z,8.93
2019-04-29T11:44:21.875Z,14.37
2019-04-29T11:46:53.014Z,6.60
2019-04-29T11:49:29.376Z,6.93
2019-04-29T11:52:08.986Z,7.80
2019-04-29T11:54:30.484Z,8.23
2019-04-29T11:57:00.210Z,7.83
2019-04-29T11:59:48.735Z,7.43
2019-04-29T12:02:45.687Z,7.53
2019-04-29T12:05:35.662Z,8.17
2019-04-29T12:08:11.823Z,6.30
2019-04-29T12:10:38.277Z,8.03
2019-04-29T12:13:11.618Z,10.50
2019-04-29T12:16:02.918Z,7.37
2019-04-29T12:18:39.869Z,8.97
2019-04-29T12:21:20.749Z,8.73
2019-04-29T12:23:52.042Z,9.87
2019-04-29T12:26:21.923Z,7.60
2019-04-29T12:28:51.517Z,8.93
2019-04-29T12:31:39.978Z,9.37
2019-04-29T12:34:20.053Z,11.97
2019-04-29T12:36:55.838Z,8.80
2019-04-29T12:39:43.517Z,7.87
2019-04-29T12:42:28.122Z,10.10
2019-04-29T12:45:19.350Z,10.93
2019-04-29T12:47:43.765Z,8.33
2019-04-29T12:50:13.583Z,9.53
2019-04-29T12:52:43.226Z,9.20
2019-04-29T12:55:20.395Z,7.40
2019-04-29T12:57:45.986Z,12.20
2019-04-29T13:00:21.290Z,10.40
2019-04-29T13:03:03.862Z,11.07
2019-04-29T13:05:59.857Z,8.97
2019-04-29T13:08:48.978Z,9.67
2019-04-29T13:11:20.770Z,7.70
2019-04-29T13:13:51.420Z,11.63
2019-04-29T13:16:32.178Z,7.50
2019-04-29T13:19:25.187Z,5.63
2019-04-29T13:21:52.796Z,12.13
2019-04-29T13:24:24.534Z,10.13
2019-04-29T13:26:53.825Z,10.83
2019-04-29T13:29:27.237Z,9.60
2019-04-29T13:31:55.899Z,11.73
2019-04-29T13:34:33.324Z,11.30
2019-04-29T13:37:07.177Z,9.27
2019-04-29T13:39:39.633Z,12.80
2019-04-29T13:42:09.062Z,10.93
2019-04-29T13:44:41.995Z,8.83
2019-04-29T13:47:29.291Z,9.40
2019-04-29T13:50:18.092Z,11.10
2019-04-29T13:52:34.767Z,11.33
2019-04-29T13:55:17.202Z,11.63
2019-04-29T13:57:35.910Z,12.97
2019-04-29T14:00:30.978Z,11.53
2019-04-29T14:03:07.252Z,14.13
2019-04-29T14:05:37.792Z,14.37
2019-04-29T14:08:07.708Z,13.43
2019-04-29T14:10:37.451Z,10.57
2019-04-29T14:13:15.202Z,15.17
2019-04-29T14:15:40.491Z,13.57
2019-04-29T14:18:11.731Z,12.20
2019-04-29T14:20:41.475Z,15.63
2019-04-29T14:23:11.227Z,11.50
2019-04-29T14:25:40.890Z,14.03
2019-04-29T14:28:10.505Z,12.73
2019-04-29T14:30:43.729Z,16.53
2019-04-29T14:33:11.553Z,12.57
2019-04-29T14:35:49.965Z,19.57
2019-04-29T14:38:19.703Z,15.40
2019-04-29T14:40:49.333Z,15.57
2019-04-29T14:43:55.209Z,12.60
2019-04-29T14:46:38.573Z,15.83
2019-04-29T14:49:17.456Z,11.20
2019-04-29T14:51:47.313Z,15.37
2019-04-29T14:54:16.963Z,14.27
2019-04-29T14:56:46.575Z,10.83
2019-04-29T14:59:16.207Z,17.27
2019-04-29T15:01:54.653Z,11.10
2019-04-29T15:04:26.862Z,14.33
2019-04-29T15:06:56.550Z,15.77
2019-04-29T15:09:26.369Z,17.07
2019-04-29T15:12:17.263Z,12.90
2019-04-29T15:15:08.190Z,12.10
2019-04-29T15:18:15.319Z,13.33
2019-04-29T15:20:55.922Z,10.73
2019-04-29T15:23:28.916Z,11.93
2019-04-29T15:25:55.928Z,11.67
2019-04-29T15:28:25.605Z,15.73
2019-04-29T15:30:55.249Z,13.13
2019-04-29T15:33:25.043Z,14.83
2019-04-29T15:35:54.955Z,17.10
2019-04-29T15:38:26.057Z,13.33
2019-04-29T15:40:55.762Z,16.63
2019-04-29T15:43:45.474Z,15.77
2019-04-29T15:45:56.746Z,11.87
2019-04-29T15:48:26.368Z,19.53
2019-04-29T15:50:56.340Z,13.73
2019-04-29T15:53:26.088Z,12.03
2019-04-29T15:56:06.507Z,10.33
2019-04-29T15:58:28.915Z,11.63
2019-04-29T16:01:11.361Z,9.97
2019-04-29T16:03:29.819Z,13.63
2019-04-29T16:06:21.639Z,9.17
2019-04-29T16:08:59.874Z,9.70
2019-04-29T16:11:47.027Z,8.30
2019-04-29T16:14:22.281Z,11.13
2019-04-29T16:16:51.922Z,13.07
2019-04-29T16:19:21.650Z,8.77
2019-04-29T16:21:51.271Z,9.90
2019-04-29T16:24:37.607Z,10.23
2019-04-29T16:26:53.845Z,12.53
2019-04-29T16:29:23.641Z,8.60
2019-04-29T16:31:54.914Z,12.73
2019-04-29T16:34:24.638Z,13.70
2019-04-29T16:36:54.395Z,10.57
2019-04-29T16:39:24.087Z,9.97
2019-04-29T16:42:10.972Z,11.60
2019-04-29T16:44:41.750Z,12.33
2019-04-29T16:47:13.117Z,14.03
2019-04-29T16:49:43.320Z,8.17
2019-04-29T16:52:12.950Z,10.37
2019-04-29T16:54:42.719Z,11.67
2019-04-29T16:57:12.327Z,14.00
2019-04-29T16:59:42.037Z,10.77
2019-04-29T17:02:18.988Z,10.57
2019-04-29T17:04:43.064Z,15.17
2019-04-29T17:07:14.515Z,15.63
2019-04-29T17:10:06.408Z,11.53
2019-04-29T17:12:40.453Z,9.83
2019-04-29T17:15:24.216Z,12.53
2019-04-29T17:17:41.641Z,9.03
2019-04-29T17:20:11.447Z,14.47
2019-04-29T17:22:43.392Z,16.13
2019-04-29T17:25:13.758Z,13.30
2019-04-29T17:28:02.344Z,15.47
2019-04-29T17:30:50.112Z,12.63
2019-04-29T17:33:28.371Z,16.37
2019-04-29T17:35:56.161Z,9.83
2019-04-29T17:38:25.912Z,10.37
2019-04-29T17:40:55.552Z,14.57
2019-04-29T17:43:59.524Z,12.57
2019-04-29T17:46:45.335Z,13.27
2019-04-29T17:49:30.980Z,16.17
2019-04-29T17:52:03.041Z,25.73
2019-04-29T17:54:37.242Z,18.57
2019-04-29T17:57:26.389Z,13.13
2019-04-29T18:00:08.573Z,13.23
2019-04-29T18:02:57.354Z,26.03
2019-04-29T18:05:52.239Z,25.37
2019-04-29T18:08:18.646Z,17.97
2019-04-29T18:10:52.415Z,15.47
2019-04-29T18:13:24.673Z,22.27
2019-04-29T18:16:01.492Z,17.70
2019-04-29T18:18:46.147Z,16.10
2019-04-29T18:21:25.081Z,16.67
2019-04-29T18:24:18.503Z,15.00
2019-04-29T18:26:55.643Z,13.60
2019-04-29T18:29:25.804Z,14.70
2019-04-29T18:31:55.703Z,16.90
2019-04-29T18:34:25.318Z,16.30
2019-04-29T18:37:00.161Z,11.03
2019-04-29T18:39:29.957Z,10.53
2019-04-29T18:42:03.076Z,13.60
2019-04-29T18:44:30.762Z,10.20
2019-04-29T18:47:00.384Z,15.93
2019-04-29T18:49:30.028Z,14.17
2019-04-29T18:52:02.318Z,12.47
2019-04-29T18:54:31.179Z,12.80
2019-04-29T18:57:00.843Z,15.07
2019-04-29T18:59:33.483Z,12.13
2019-04-29T19:02:07.872Z,11.23
2019-04-29T19:04:40.993Z,10.23
2019-04-29T19:07:10.665Z,12.37
2019-04-29T19:09:41.190Z,10.27
2019-04-29T19:12:10.879Z,7.77
2019-04-29T19:14:40.489Z,10.17
2019-04-29T19:17:10.198Z,9.47
2019-04-29T19:19:39.835Z,10.77
2019-04-29T19:22:09.674Z,13.80
2019-04-29T19:24:39.496Z,9.93
2019-04-29T19:27:10.041Z,11.20
2019-04-29T19:29:43.324Z,11.90
2019-04-29T19:32:11.365Z,13.07
2019-04-29T19:34:43.457Z,13.13
2019-04-29T19:37:12.397Z,12.67
2019-04-29T19:39:42.040Z,9.37
2019-04-29T19:42:11.766Z,9.23
2019-04-29T19:44:41.407Z,8.17
2019-04-29T19:47:15.101Z,11.20
2019-04-29T19:49:44.764Z,8.23
2019-04-29T19:52:18.426Z,9.33
2019-04-29T19:54:45.270Z,7.47
2019-04-29T19:57:15.034Z,10.23
2019-04-29T19:59:51.499Z,9.47
2019-04-29T20:02:17.216Z,7.40
2019-04-29T20:05:05.000Z,9.93
2019-04-29T20:07:41.234Z,7.20
2019-04-29T20:10:08.970Z,7.63
2019-04-29T20:12:37.226Z,10.97
2019-04-29T20:15:08.685Z,10.97
2019-04-29T20:17:58.031Z,10.63
2019-04-29T20:20:40.944Z,11.90
2019-04-29T20:23:10.755Z,8.67
2019-04-29T20:25:40.686Z,7.23
2019-04-29T20:28:16.880Z,11.07
2019-04-29T20:30:42.069Z,8.77
2019-04-29T20:33:12.876Z,8.47
2019-04-29T20:35:45.317Z,10.33
2019-04-29T20:38:15.746Z,7.27
2019-04-29T20:40:46.581Z,9.53
2019-04-29T20:43:20.856Z,7.53
2019-04-29T20:45:48.082Z,13.63
2019-04-29T20:48:19.628Z,8.30
2019-04-29T20:50:52.671Z,7.63
2019-04-29T20:53:38.726Z,13.30
2019-04-29T20:56:12.296Z,12.37
2019-04-29T20:58:38.139Z,10.63
2019-04-29T21:01:11.534Z,10.97
2019-04-29T21:03:46.203Z,10.00
2019-04-29T21:06:12.744Z,9.37
2019-04-29T21:08:46.709Z,10.50
2019-04-29T21:11:21.051Z,8.80
2019-04-29T21:14:15.618Z,9.20
2019-04-29T21:16:47.497Z,8.90
2019-04-29T21:19:17.124Z,8.03
2019-04-29T21:21:47.582Z,9.07
2019-04-29T21:24:18.781Z,8.87
2019-04-29T21:26:48.570Z,10.43
2019-04-29T21:29:19.535Z,6.73
2019-04-29T21:31:50.747Z,8.60
2019-04-29T21:34:22.496Z,10.30
2019-04-29T21:37:21.840Z,10.97
2019-04-29T21:40:07.197Z,7.77
2019-04-29T21:42:49.952Z,7.07
2019-04-29T21:45:19.658Z,10.17
2019-04-29T21:47:53.205Z,13.00
2019-04-29T21:50:20.862Z,8.57
2019-04-29T21:52:50.489Z,8.80
2019-04-29T21:55:20.561Z,9.13
2019-04-29T21:57:54.493Z,8.80
2019-04-29T22:00:24.536Z,9.23
2019-04-29T22:02:55.424Z,9.43
2019-04-29T22:05:25.221Z,11.00
2019-04-29T22:07:55.154Z,9.13
2019-04-29T22:10:29.009Z,10.20
2019-04-29T22:13:01.785Z,8.63
2019-04-29T22:15:32.809Z,12.80
2019-04-29T22:18:01.655Z,11.63
2019-04-29T22:20:30.753Z,8.67
2019-04-29T22:23:00.422Z,7.07
2019-04-29T22:25:30.050Z,14.30
2019-04-29T22:27:59.680Z,13.27
2019-04-29T22:30:29.498Z,11.83
2019-04-29T22:32:59.955Z,11.53
2019-04-29T22:35:32.868Z,11.77
2019-04-29T22:38:01.105Z,8.93
2019-04-29T22:40:34.183Z,14.13
2019-04-29T22:43:14.279Z,10.37
2019-04-29T22:45:43.226Z,8.83
2019-04-29T22:48:17.468Z,8.67
2019-04-29T22:50:45.492Z,8.23
2019-04-29T22:53:16.517Z,10.07
2019-04-29T22:55:46.127Z,10.63
2019-04-29T22:58:15.706Z,12.73
2019-04-29T23:00:45.316Z,10.97
2019-04-29T23:03:14.900Z,11.57
2019-04-29T23:05:46.150Z,11.50
2019-04-29T23:08:15.938Z,12.33
2019-04-29T23:10:45.679Z,11.00
2019-04-29T23:13:15.307Z,10.33
2019-04-29T23:15:45.547Z,13.60
2019-04-29T23:18:24.534Z,10.90
2019-04-29T23:21:08.731Z,12.13
2019-04-29T23:23:45.262Z,14.70
2019-04-29T23:26:14.806Z,10.63
2019-04-29T23:28:46.050Z,10.60
2019-04-29T23:31:15.758Z,10.27
2019-04-29T23:33:45.711Z,12.33
2019-04-29T23:36:16.021Z,11.00
2019-04-29T23:38:45.878Z,14.60
2019-04-29T23:41:15.449Z,7.87
2019-04-29T23:43:45.599Z,12.87
2019-04-29T23:46:16.158Z,12.57
2019-04-29T23:48:46.777Z,10.13
2019-04-29T23:51:16.681Z,13.13
2019-04-29T23:53:46.268Z,12.70
2019-04-29T23:56:16.344Z,9.50
2019-04-29T23:58:51.980Z,10.57
